sensor_id;sensor_type;location;lat;lon;timestamp;pressure;altitude;pressure_sealevel;temperature;humidity
71105;BME280;58760;48.716;8.962;2023-03-16T00:01:13;96827.44;;;-0.75;100.00
71105;BME280;58760;48.716;8.962;2023-03-16T00:03:38;96823.34;;;-0.79;100.00
71105;BME280;58760;48.716;8.962;2023-03-16T00:06:16;96819.97;;;-0.81;100.00
71105;BME280;58760;48.716;8.962;2023-03-16T00:08:41;96824.66;;;-0.86;100.00
71105;BME280;58760;48.716;8.962;2023-03-16T00:11:07;96814.44;;;-0.89;100.00
71105;BME280;58760;48.716;8.962;2023-03-16T00:13:32;96819.63;;;-0.89;100.00
71105;BME280;58760;48.716;8.962;2023-03-16T00:16:00;96819.44;;;-0.86;100.00
71105;BME280;58760;48.716;8.962;2023-03-16T00:18:27;96819.88;;;-0.80;100.00
71105;BME280;58760;48.716;8.962;2023-03-16T00:20:58;96817.09;;;-0.77;100.00
71105;BME280;58760;48.716;8.962;2023-03-16T00:23:24;96822.69;;;-0.83;100.00
71105;BME280;58760;48.716;8.962;2023-03-16T00:25:57;96819.25;;;-0.83;100.00
71105;BME280;58760;48.716;8.962;2023-03-16T00:28:24;96813.31;;;-0.85;100.00
71105;BME280;58760;48.716;8.962;2023-03-16T00:30:50;96811.75;;;-0.88;100.00
71105;BME280;58760;48.716;8.962;2023-03-16T00:33:16;96822.97;;;-0.87;100.00
71105;BME280;58760;48.716;8.962;2023-03-16T00:35:45;96817.75;;;-0.87;100.00
71105;BME280;58760;48.716;8.962;2023-03-16T00:38:15;96820.28;;;-1.00;100.00
71105;BME280;58760;48.716;8.962;2023-03-16T00:40:40;96832.59;;;-1.02;100.00
71105;BME280;58760;48.716;8.962;2023-03-16T00:43:06;96826.72;;;-0.91;100.00
71105;BME280;58760;48.716;8.962;2023-03-16T00:45:31;96826.59;;;-0.90;100.00
71105;BME280;58760;48.716;8.962;2023-03-16T00:47:57;96831.16;;;-0.93;100.00
71105;BME280;58760;48.716;8.962;2023-03-16T00:50:22;96828.09;;;-1.00;100.00
71105;BME280;58760;48.716;8.962;2023-03-16T00:52:47;96818.91;;;-1.06;100.00
71105;BME280;58760;48.716;8.962;2023-03-16T00:55:13;96822.44;;;-1.07;100.00
71105;BME280;58760;48.716;8.962;2023-03-16T00:57:38;96810.72;;;-0.99;100.00
71105;BME280;58760;48.716;8.962;2023-03-16T01:00:04;96811.84;;;-1.03;100.00
71105;BME280;58760;48.716;8.962;2023-03-16T01:02:41;96816.31;;;-1.06;100.00
71105;BME280;58760;48.716;8.962;2023-03-16T01:05:07;96811.38;;;-1.10;100.00
71105;BME280;58760;48.716;8.962;2023-03-16T01:07:33;96808.13;;;-1.14;100.00
71105;BME280;58760;48.716;8.962;2023-03-16T01:10:00;96804.88;;;-1.03;100.00
71105;BME280;58760;48.716;8.962;2023-03-16T01:12:26;96794.56;;;-1.04;100.00
71105;BME280;58760;48.716;8.962;2023-03-16T01:14:52;96806.44;;;-1.00;100.00
71105;BME280;58760;48.716;8.962;2023-03-16T01:17:17;96807.38;;;-1.01;100.00
71105;BME280;58760;48.716;8.962;2023-03-16T01:19:44;96805.16;;;-1.08;100.00
71105;BME280;58760;48.716;8.962;2023-03-16T01:22:10;96805.44;;;-1.12;100.00
71105;BME280;58760;48.716;8.962;2023-03-16T01:24:36;96805.72;;;-1.17;100.00
71105;BME280;58760;48.716;8.962;2023-03-16T01:27:03;96806.09;;;-1.23;100.00
71105;BME280;58760;48.716;8.962;2023-03-16T01:29:29;96808.88;;;-1.26;100.00
71105;BME280;58760;48.716;8.962;2023-03-16T01:31:55;96809.66;;;-1.24;100.00
71105;BME280;58760;48.716;8.962;2023-03-16T01:34:21;96813.38;;;-1.28;100.00
71105;BME280;58760;48.716;8.962;2023-03-16T01:36:48;96799.25;;;-1.24;100.00
71105;BME280;58760;48.716;8.962;2023-03-16T01:39:14;96799.97;;;-1.08;100.00
71105;BME280;58760;48.716;8.962;2023-03-16T01:41:41;96798.63;;;-1.00;100.00
71105;BME280;58760;48.716;8.962;2023-03-16T01:44:14;96800.31;;;-1.14;100.00
71105;BME280;58760;48.716;8.962;2023-03-16T01:46:40;96802.38;;;-1.19;100.00
71105;BME280;58760;48.716;8.962;2023-03-16T01:49:18;96799.97;;;-1.22;100.00
71105;BME280;58760;48.716;8.962;2023-03-16T01:51:54;96803.75;;;-0.99;100.00
71105;BME280;58760;48.716;8.962;2023-03-16T01:54:26;96818.38;;;-1.11;100.00
71105;BME280;58760;48.716;8.962;2023-03-16T01:59:28;96797.19;;;-1.19;100.00
71105;BME280;58760;48.716;8.962;2023-03-16T02:01:55;96792.72;;;-1.31;100.00
71105;BME280;58760;48.716;8.962;2023-03-16T02:04:42;96793.19;;;-1.38;100.00
71105;BME280;58760;48.716;8.962;2023-03-16T02:07:09;96789.75;;;-1.39;100.00
71105;BME280;58760;48.716;8.962;2023-03-16T02:09:38;96780.81;;;-1.49;100.00
71105;BME280;58760;48.716;8.962;2023-03-16T02:12:07;96781.00;;;-1.52;100.00
71105;BME280;58760;48.716;8.962;2023-03-16T02:14:32;96778.59;;;-1.55;100.00
71105;BME280;58760;48.716;8.962;2023-03-16T02:16:58;96779.72;;;-1.59;100.00
71105;BME280;58760;48.716;8.962;2023-03-16T02:19:58;96774.69;;;-1.62;100.00
71105;BME280;58760;48.716;8.962;2023-03-16T02:22:30;96765.91;;;-1.60;100.00
71105;BME280;58760;48.716;8.962;2023-03-16T02:25:00;96768.97;;;-1.53;100.00
71105;BME280;58760;48.716;8.962;2023-03-16T02:27:37;96766.16;;;-1.50;100.00
71105;BME280;58760;48.716;8.962;2023-03-16T02:30:14;96777.22;;;-1.46;100.00
71105;BME280;58760;48.716;8.962;2023-03-16T02:32:40;96777.38;;;-1.49;100.00
71105;BME280;58760;48.716;8.962;2023-03-16T02:35:07;96769.50;;;-1.48;100.00
71105;BME280;58760;48.716;8.962;2023-03-16T02:37:34;96783.44;;;-1.49;100.00
71105;BME280;58760;48.716;8.962;2023-03-16T02:40:00;96789.13;;;-1.56;100.00
71105;BME280;58760;48.716;8.962;2023-03-16T02:42:27;96774.03;;;-1.66;100.00
71105;BME280;58760;48.716;8.962;2023-03-16T02:44:59;96771.91;;;-1.59;100.00
71105;BME280;58760;48.716;8.962;2023-03-16T02:47:36;96768.13;;;-1.53;100.00
71105;BME280;58760;48.716;8.962;2023-03-16T02:50:05;96760.19;;;-1.52;100.00
71105;BME280;58760;48.716;8.962;2023-03-16T02:52:35;96772.66;;;-1.43;100.00
71105;BME280;58760;48.716;8.962;2023-03-16T02:55:02;96761.22;;;-1.40;100.00
71105;BME280;58760;48.716;8.962;2023-03-16T02:57:27;96759.56;;;-1.41;100.00
71105;BME280;58760;48.716;8.962;2023-03-16T02:59:53;96756.88;;;-1.40;100.00
71105;BME280;58760;48.716;8.962;2023-03-16T03:02:18;96752.00;;;-1.46;100.00
71105;BME280;58760;48.716;8.962;2023-03-16T03:04:43;96750.56;;;-1.50;100.00
71105;BME280;58760;48.716;8.962;2023-03-16T03:07:12;96758.25;;;-1.48;100.00
71105;BME280;58760;48.716;8.962;2023-03-16T03:09:39;96760.00;;;-1.49;100.00
71105;BME280;58760;48.716;8.962;2023-03-16T03:12:10;96750.44;;;-1.48;100.00
71105;BME280;58760;48.716;8.962;2023-03-16T03:14:36;96738.09;;;-1.45;100.00
71105;BME280;58760;48.716;8.962;2023-03-16T03:17:08;96743.28;;;-1.45;100.00
71105;BME280;58760;48.716;8.962;2023-03-16T03:19:35;96750.38;;;-1.47;100.00
71105;BME280;58760;48.716;8.962;2023-03-16T03:22:02;96749.59;;;-1.49;100.00
71105;BME280;58760;48.716;8.962;2023-03-16T03:24:34;96757.41;;;-1.49;100.00
71105;BME280;58760;48.716;8.962;2023-03-16T03:26:59;96753.44;;;-1.54;100.00
71105;BME280;58760;48.716;8.962;2023-03-16T03:29:26;96747.00;;;-1.49;100.00
71105;BME280;58760;48.716;8.962;2023-03-16T03:32:05;96737.63;;;-1.51;100.00
71105;BME280;58760;48.716;8.962;2023-03-16T03:34:31;96733.00;;;-1.46;100.00
71105;BME280;58760;48.716;8.962;2023-03-16T03:36:57;96729.44;;;-1.31;100.00
71105;BME280;58760;48.716;8.962;2023-03-16T03:39:23;96719.88;;;-1.45;100.00
71105;BME280;58760;48.716;8.962;2023-03-16T03:41:49;96726.38;;;-1.52;100.00
71105;BME280;58760;48.716;8.962;2023-03-16T03:44:22;96732.88;;;-1.45;100.00
71105;BME280;58760;48.716;8.962;2023-03-16T03:46:48;96732.44;;;-1.51;100.00
71105;BME280;58760;48.716;8.962;2023-03-16T03:49:13;96739.13;;;-1.62;100.00
71105;BME280;58760;48.716;8.962;2023-03-16T03:51:39;96733.38;;;-1.67;100.00
71105;BME280;58760;48.716;8.962;2023-03-16T03:54:05;96723.78;;;-1.52;100.00
71105;BME280;58760;48.716;8.962;2023-03-16T03:56:30;96726.41;;;-1.66;100.00
71105;BME280;58760;48.716;8.962;2023-03-16T03:58:56;96728.63;;;-1.60;100.00
71105;BME280;58760;48.716;8.962;2023-03-16T04:01:21;96721.41;;;-1.69;100.00
71105;BME280;58760;48.716;8.962;2023-03-16T04:03:47;96723.16;;;-1.70;100.00
71105;BME280;58760;48.716;8.962;2023-03-16T04:06:12;96731.22;;;-1.74;100.00
71105;BME280;58760;48.716;8.962;2023-03-16T04:08:38;96729.94;;;-1.81;100.00
71105;BME280;58760;48.716;8.962;2023-03-16T04:11:03;96730.22;;;-1.86;100.00
71105;BME280;58760;48.716;8.962;2023-03-16T04:13:29;96728.28;;;-1.82;100.00
71105;BME280;58760;48.716;8.962;2023-03-16T04:16:00;96730.75;;;-1.81;100.00
71105;BME280;58760;48.716;8.962;2023-03-16T04:18:29;96725.09;;;-1.87;100.00
71105;BME280;58760;48.716;8.962;2023-03-16T04:21:03;96717.50;;;-1.90;100.00
71105;BME280;58760;48.716;8.962;2023-03-16T04:23:30;96720.09;;;-1.90;100.00
71105;BME280;58760;48.716;8.962;2023-03-16T04:25:57;96721.94;;;-1.92;100.00
71105;BME280;58760;48.716;8.962;2023-03-16T04:28:23;96717.69;;;-1.79;100.00
71105;BME280;58760;48.716;8.962;2023-03-16T04:30:50;96712.66;;;-1.82;100.00
71105;BME280;58760;48.716;8.962;2023-03-16T04:33:18;96709.31;;;-1.84;100.00
71105;BME280;58760;48.716;8.962;2023-03-16T04:35:43;96713.84;;;-1.88;100.00
71105;BME280;58760;48.716;8.962;2023-03-16T04:38:10;96709.78;;;-1.78;100.00
71105;BME280;58760;48.716;8.962;2023-03-16T04:40:37;96712.47;;;-1.79;100.00
71105;BME280;58760;48.716;8.962;2023-03-16T04:43:02;96718.59;;;-1.80;100.00
71105;BME280;58760;48.716;8.962;2023-03-16T04:45:28;96718.22;;;-1.88;100.00
71105;BME280;58760;48.716;8.962;2023-03-16T04:47:53;96710.63;;;-1.77;100.00
71105;BME280;58760;48.716;8.962;2023-03-16T04:50:18;96707.09;;;-1.76;100.00
71105;BME280;58760;48.716;8.962;2023-03-16T04:52:44;96707.28;;;-1.79;100.00
71105;BME280;58760;48.716;8.962;2023-03-16T04:55:09;96709.94;;;-1.95;100.00
71105;BME280;58760;48.716;8.962;2023-03-16T04:57:35;96707.84;;;-2.02;100.00
71105;BME280;58760;48.716;8.962;2023-03-16T05:00:00;96695.09;;;-2.07;100.00
71105;BME280;58760;48.716;8.962;2023-03-16T05:02:26;96706.72;;;-2.13;100.00
71105;BME280;58760;48.716;8.962;2023-03-16T05:04:52;96706.59;;;-2.11;100.00
71105;BME280;58760;48.716;8.962;2023-03-16T05:07:17;96701.06;;;-2.05;100.00
71105;BME280;58760;48.716;8.962;2023-03-16T05:09:43;96699.66;;;-1.96;100.00
71105;BME280;58760;48.716;8.962;2023-03-16T05:12:10;96713.56;;;-1.97;100.00
71105;BME280;58760;48.716;8.962;2023-03-16T05:14:35;96704.13;;;-1.98;100.00
71105;BME280;58760;48.716;8.962;2023-03-16T05:17:01;96707.72;;;-2.01;100.00
71105;BME280;58760;48.716;8.962;2023-03-16T05:19:28;96705.06;;;-1.99;100.00
71105;BME280;58760;48.716;8.962;2023-03-16T05:21:54;96701.88;;;-2.04;100.00
71105;BME280;58760;48.716;8.962;2023-03-16T05:24:21;96705.59;;;-2.08;100.00
71105;BME280;58760;48.716;8.962;2023-03-16T05:26:48;96708.28;;;-2.10;100.00
71105;BME280;58760;48.716;8.962;2023-03-16T05:29:13;96705.94;;;-2.15;100.00
71105;BME280;58760;48.716;8.962;2023-03-16T05:31:39;96700.59;;;-2.12;100.00
71105;BME280;58760;48.716;8.962;2023-03-16T05:34:04;96698.00;;;-2.12;100.00
71105;BME280;58760;48.716;8.962;2023-03-16T05:36:30;96697.22;;;-2.14;100.00
71105;BME280;58760;48.716;8.962;2023-03-16T05:38:55;96703.72;;;-2.35;100.00
71105;BME280;58760;48.716;8.962;2023-03-16T05:41:22;96702.78;;;-2.34;100.00
71105;BME280;58760;48.716;8.962;2023-03-16T05:43:48;96705.19;;;-2.45;100.00
71105;BME280;58760;48.716;8.962;2023-03-16T05:46:13;96703.59;;;-2.47;100.00
71105;BME280;58760;48.716;8.962;2023-03-16T05:48:38;96701.44;;;-2.55;100.00
71105;BME280;58760;48.716;8.962;2023-03-16T05:51:04;96702.09;;;-2.51;100.00
71105;BME280;58760;48.716;8.962;2023-03-16T05:53:33;96701.25;;;-2.52;100.00
71105;BME280;58760;48.716;8.962;2023-03-16T05:56:00;96702.72;;;-2.62;100.00
71105;BME280;58760;48.716;8.962;2023-03-16T05:58:26;96699.56;;;-2.53;100.00
71105;BME280;58760;48.716;8.962;2023-03-16T06:00:52;96702.28;;;-2.54;100.00
71105;BME280;58760;48.716;8.962;2023-03-16T06:03:20;96693.47;;;-2.52;100.00
71105;BME280;58760;48.716;8.962;2023-03-16T06:05:46;96687.97;;;-2.61;100.00
71105;BME280;58760;48.716;8.962;2023-03-16T06:08:11;96694.00;;;-2.61;100.00
71105;BME280;58760;48.716;8.962;2023-03-16T06:10:37;96689.59;;;-2.75;100.00
71105;BME280;58760;48.716;8.962;2023-03-16T06:13:02;96684.09;;;-2.54;100.00
71105;BME280;58760;48.716;8.962;2023-03-16T06:15:27;96692.13;;;-2.29;100.00
71105;BME280;58760;48.716;8.962;2023-03-16T06:17:55;96693.50;;;-2.24;100.00
71105;BME280;58760;48.716;8.962;2023-03-16T06:20:20;96695.44;;;-2.27;100.00
71105;BME280;58760;48.716;8.962;2023-03-16T06:22:46;96701.00;;;-2.33;100.00
71105;BME280;58760;48.716;8.962;2023-03-16T06:25:13;96694.53;;;-2.26;100.00
71105;BME280;58760;48.716;8.962;2023-03-16T06:27:38;96714.28;;;-2.24;100.00
71105;BME280;58760;48.716;8.962;2023-03-16T06:30:05;96709.50;;;-2.16;100.00
71105;BME280;58760;48.716;8.962;2023-03-16T06:32:31;96704.94;;;-2.26;100.00
71105;BME280;58760;48.716;8.962;2023-03-16T06:34:56;96699.66;;;-2.25;100.00
71105;BME280;58760;48.716;8.962;2023-03-16T06:37:24;96699.47;;;-2.22;100.00
71105;BME280;58760;48.716;8.962;2023-03-16T06:39:49;96709.19;;;-2.25;99.80
71105;BME280;58760;48.716;8.962;2023-03-16T06:42:14;96706.06;;;-2.02;99.95
71105;BME280;58760;48.716;8.962;2023-03-16T06:44:41;96700.19;;;-1.91;99.79
71105;BME280;58760;48.716;8.962;2023-03-16T06:47:07;96701.91;;;-1.76;99.59
71105;BME280;58760;48.716;8.962;2023-03-16T06:49:32;96704.13;;;-1.70;98.85
71105;BME280;58760;48.716;8.962;2023-03-16T06:51:57;96702.50;;;-1.59;98.20
71105;BME280;58760;48.716;8.962;2023-03-16T06:54:23;96711.34;;;-1.61;97.58
71105;BME280;58760;48.716;8.962;2023-03-16T06:56:49;96709.78;;;-1.64;97.12
71105;BME280;58760;48.716;8.962;2023-03-16T06:59:14;96703.34;;;-1.44;97.77
71105;BME280;58760;48.716;8.962;2023-03-16T07:01:40;96701.91;;;-1.35;97.69
71105;BME280;58760;48.716;8.962;2023-03-16T07:04:06;96707.25;;;-1.10;98.30
71105;BME280;58760;48.716;8.962;2023-03-16T07:06:32;96710.75;;;-1.24;97.17
71105;BME280;58760;48.716;8.962;2023-03-16T07:08:58;96703.56;;;-0.93;97.71
71105;BME280;58760;48.716;8.962;2023-03-16T07:11:25;96715.34;;;-0.61;98.34
71105;BME280;58760;48.716;8.962;2023-03-16T07:13:51;96706.13;;;-0.40;98.58
71105;BME280;58760;48.716;8.962;2023-03-16T07:16:16;96713.31;;;-0.31;98.13
71105;BME280;58760;48.716;8.962;2023-03-16T07:18:41;96711.03;;;-0.23;96.21
71105;BME280;58760;48.716;8.962;2023-03-16T07:21:09;96709.78;;;-0.30;96.01
71105;BME280;58760;48.716;8.962;2023-03-16T07:23:34;96707.06;;;-0.16;96.28
71105;BME280;58760;48.716;8.962;2023-03-16T07:26:00;96707.50;;;0.04;96.89
71105;BME280;58760;48.716;8.962;2023-03-16T07:28:26;96704.56;;;0.21;97.27
71105;BME280;58760;48.716;8.962;2023-03-16T07:30:52;96717.94;;;0.41;97.30
71105;BME280;58760;48.716;8.962;2023-03-16T07:33:17;96705.91;;;0.51;96.99
71105;BME280;58760;48.716;8.962;2023-03-16T07:35:43;96713.59;;;0.66;96.75
71105;BME280;58760;48.716;8.962;2023-03-16T07:38:08;96708.94;;;0.82;96.58
71105;BME280;58760;48.716;8.962;2023-03-16T07:40:37;96718.63;;;0.92;95.80
71105;BME280;58760;48.716;8.962;2023-03-16T07:43:03;96719.66;;;1.02;95.64
71105;BME280;58760;48.716;8.962;2023-03-16T07:45:28;96711.28;;;1.10;95.33
71105;BME280;58760;48.716;8.962;2023-03-16T07:47:55;96714.75;;;1.22;95.34
71105;BME280;58760;48.716;8.962;2023-03-16T07:50:20;96704.69;;;1.28;95.27
71105;BME280;58760;48.716;8.962;2023-03-16T07:52:46;96704.38;;;1.33;95.39
71105;BME280;58760;48.716;8.962;2023-03-16T07:55:12;96702.75;;;1.43;95.08
71105;BME280;58760;48.716;8.962;2023-03-16T07:57:38;96707.56;;;1.60;95.31
71105;BME280;58760;48.716;8.962;2023-03-16T08:00:04;96707.69;;;2.04;93.23
71105;BME280;58760;48.716;8.962;2023-03-16T08:02:32;96704.00;;;2.07;91.98
71105;BME280;58760;48.716;8.962;2023-03-16T08:04:57;96701.84;;;2.12;91.59
71105;BME280;58760;48.716;8.962;2023-03-16T08:07:23;96712.94;;;2.16;91.50
71105;BME280;58760;48.716;8.962;2023-03-16T08:09:49;96705.94;;;2.27;91.67
71105;BME280;58760;48.716;8.962;2023-03-16T08:12:15;96712.59;;;2.31;91.56
71105;BME280;58760;48.716;8.962;2023-03-16T08:14:40;96709.03;;;2.43;91.10
71105;BME280;58760;48.716;8.962;2023-03-16T08:17:06;96707.94;;;2.57;90.11
71105;BME280;58760;48.716;8.962;2023-03-16T08:19:33;96712.72;;;2.63;89.91
71105;BME280;58760;48.716;8.962;2023-03-16T08:21:58;96706.66;;;2.62;90.24
71105;BME280;58760;48.716;8.962;2023-03-16T08:24:26;96705.06;;;2.93;90.30
71105;BME280;58760;48.716;8.962;2023-03-16T08:26:52;96697.94;;;2.95;89.49
71105;BME280;58760;48.716;8.962;2023-03-16T08:29:17;96692.34;;;2.89;89.05
71105;BME280;58760;48.716;8.962;2023-03-16T08:31:43;96688.13;;;2.97;89.68
71105;BME280;58760;48.716;8.962;2023-03-16T08:34:09;96683.94;;;3.06;90.28
71105;BME280;58760;48.716;8.962;2023-03-16T08:36:35;96687.03;;;3.11;90.13
71105;BME280;58760;48.716;8.962;2023-03-16T08:39:02;96681.38;;;3.27;89.89
71105;BME280;58760;48.716;8.962;2023-03-16T08:41:30;96666.44;;;3.38;89.60
71105;BME280;58760;48.716;8.962;2023-03-16T08:43:57;96666.06;;;3.43;89.33
71105;BME280;58760;48.716;8.962;2023-03-16T08:46:22;96665.56;;;3.49;88.78
71105;BME280;58760;48.716;8.962;2023-03-16T08:48:48;96660.97;;;3.62;88.45
71105;BME280;58760;48.716;8.962;2023-03-16T08:51:14;96658.41;;;3.72;87.92
71105;BME280;58760;48.716;8.962;2023-03-16T08:53:39;96656.50;;;3.74;87.27
71105;BME280;58760;48.716;8.962;2023-03-16T08:56:07;96665.66;;;3.79;87.29
71105;BME280;58760;48.716;8.962;2023-03-16T08:58:33;96665.97;;;3.86;87.54
71105;BME280;58760;48.716;8.962;2023-03-16T09:01:00;96667.03;;;4.04;87.58
71105;BME280;58760;48.716;8.962;2023-03-16T09:03:25;96660.25;;;4.22;86.17
71105;BME280;58760;48.716;8.962;2023-03-16T09:05:51;96669.06;;;4.42;85.25
71105;BME280;58760;48.716;8.962;2023-03-16T09:08:17;96655.09;;;4.41;85.02
71105;BME280;58760;48.716;8.962;2023-03-16T09:10:43;96652.09;;;4.65;85.90
71105;BME280;58760;48.716;8.962;2023-03-16T09:13:09;96642.59;;;4.73;85.13
71105;BME280;58760;48.716;8.962;2023-03-16T09:15:34;96635.00;;;4.80;84.21
71105;BME280;58760;48.716;8.962;2023-03-16T09:18:00;96643.50;;;5.03;83.19
71105;BME280;58760;48.716;8.962;2023-03-16T09:20:28;96640.19;;;5.10;82.21
71105;BME280;58760;48.716;8.962;2023-03-16T09:22:54;96640.63;;;5.35;80.41
71105;BME280;58760;48.716;8.962;2023-03-16T09:25:19;96654.06;;;5.51;79.43
71105;BME280;58760;48.716;8.962;2023-03-16T09:27:45;96660.72;;;5.55;78.66
71105;BME280;58760;48.716;8.962;2023-03-16T09:30:11;96645.19;;;5.52;77.42
71105;BME280;58760;48.716;8.962;2023-03-16T09:32:37;96644.75;;;5.66;78.12
71105;BME280;58760;48.716;8.962;2023-03-16T09:35:04;96656.53;;;5.81;78.18
71105;BME280;58760;48.716;8.962;2023-03-16T09:37:31;96642.53;;;5.80;74.45
71105;BME280;58760;48.716;8.962;2023-03-16T09:39:57;96639.25;;;5.88;73.44
71105;BME280;58760;48.716;8.962;2023-03-16T09:42:29;96627.84;;;5.97;74.95
71105;BME280;58760;48.716;8.962;2023-03-16T09:45:17;96620.34;;;5.83;72.94
71105;BME280;58760;48.716;8.962;2023-03-16T09:47:49;96619.00;;;5.98;72.81
71105;BME280;58760;48.716;8.962;2023-03-16T09:50:21;96617.94;;;6.18;72.98
71105;BME280;58760;48.716;8.962;2023-03-16T09:57:54;96609.44;;;6.61;71.27
71105;BME280;58760;48.716;8.962;2023-03-16T10:00:35;96612.56;;;6.47;69.23
71105;BME280;58760;48.716;8.962;2023-03-16T10:03:22;96613.47;;;6.65;72.02
71105;BME280;58760;48.716;8.962;2023-03-16T10:05:59;96611.91;;;6.72;69.20
71105;BME280;58760;48.716;8.962;2023-03-16T10:08:52;96615.81;;;6.86;69.93
71105;BME280;58760;48.716;8.962;2023-03-16T10:11:28;96607.13;;;7.03;69.69
71105;BME280;58760;48.716;8.962;2023-03-16T10:14:04;96615.66;;;7.15;68.34
71105;BME280;58760;48.716;8.962;2023-03-16T10:16:46;96621.25;;;7.12;69.04
71105;BME280;58760;48.716;8.962;2023-03-16T10:19:16;96617.38;;;7.06;68.04
71105;BME280;58760;48.716;8.962;2023-03-16T10:21:44;96601.84;;;7.03;68.15
71105;BME280;58760;48.716;8.962;2023-03-16T10:24:39;96606.97;;;7.22;69.29
71105;BME280;58760;48.716;8.962;2023-03-16T10:27:17;96602.16;;;7.35;67.77
71105;BME280;58760;48.716;8.962;2023-03-16T10:29:44;96607.00;;;7.40;66.69
71105;BME280;58760;48.716;8.962;2023-03-16T10:32:13;96602.28;;;7.52;66.85
71105;BME280;58760;48.716;8.962;2023-03-16T10:34:39;96601.84;;;7.56;67.33
71105;BME280;58760;48.716;8.962;2023-03-16T10:37:08;96589.81;;;7.79;65.98
71105;BME280;58760;48.716;8.962;2023-03-16T10:39:37;96577.59;;;7.78;64.04
71105;BME280;58760;48.716;8.962;2023-03-16T10:42:13;96585.91;;;7.83;66.22
71105;BME280;58760;48.716;8.962;2023-03-16T10:44:40;96563.66;;;7.94;65.25
71105;BME280;58760;48.716;8.962;2023-03-16T10:47:06;96562.00;;;7.93;65.41
71105;BME280;58760;48.716;8.962;2023-03-16T10:49:39;96569.34;;;8.07;65.34
71105;BME280;58760;48.716;8.962;2023-03-16T10:52:38;96570.03;;;8.35;60.65
71105;BME280;58760;48.716;8.962;2023-03-16T10:55:16;96568.16;;;8.27;60.91
71105;BME280;58760;48.716;8.962;2023-03-16T10:57:49;96558.13;;;8.31;62.70
71105;BME280;58760;48.716;8.962;2023-03-16T11:00:20;96571.72;;;8.44;62.04
71105;BME280;58760;48.716;8.962;2023-03-16T11:02:48;96572.88;;;8.42;61.43
71105;BME280;58760;48.716;8.962;2023-03-16T11:08:23;96557.59;;;8.61;59.48
71105;BME280;58760;48.716;8.962;2023-03-16T11:10:57;96558.44;;;8.70;61.16
71105;BME280;58760;48.716;8.962;2023-03-16T11:13:31;96558.81;;;8.91;64.93
71105;BME280;58760;48.716;8.962;2023-03-16T11:16:15;96549.28;;;9.06;59.92
71105;BME280;58760;48.716;8.962;2023-03-16T11:18:44;96545.31;;;9.10;60.38
71105;BME280;58760;48.716;8.962;2023-03-16T11:24:18;96553.94;;;9.28;54.22
71105;BME280;58760;48.716;8.962;2023-03-16T11:26:53;96558.06;;;9.47;58.34
71105;BME280;58760;48.716;8.962;2023-03-16T11:29:26;96547.97;;;9.67;56.35
71105;BME280;58760;48.716;8.962;2023-03-16T11:32:00;96549.63;;;9.84;56.68
71105;BME280;58760;48.716;8.962;2023-03-16T11:34:30;96544.94;;;10.02;53.53
71105;BME280;58760;48.716;8.962;2023-03-16T11:42:32;96532.34;;;10.59;53.33
71105;BME280;58760;48.716;8.962;2023-03-16T11:48:00;96521.88;;;11.19;50.59
71105;BME280;58760;48.716;8.962;2023-03-16T11:53:35;96506.00;;;12.23;52.74
71105;BME280;58760;48.716;8.962;2023-03-16T11:56:42;96501.16;;;13.77;46.20
71105;BME280;58760;48.716;8.962;2023-03-16T11:59:39;96490.69;;;14.37;42.80
71105;BME280;58760;48.716;8.962;2023-03-16T12:16:24;96475.38;;;17.02;36.85
71105;BME280;58760;48.716;8.962;2023-03-16T12:18:58;96479.59;;;15.75;35.99
71105;BME280;58760;48.716;8.962;2023-03-16T12:21:32;96475.38;;;15.13;41.99
71105;BME280;58760;48.716;8.962;2023-03-16T12:24:05;96478.97;;;14.73;40.20
71105;BME280;58760;48.716;8.962;2023-03-16T12:26:39;96492.69;;;15.30;39.12
71105;BME280;58760;48.716;8.962;2023-03-16T12:29:19;96471.16;;;15.58;37.42
71105;BME280;58760;48.716;8.962;2023-03-16T12:34:40;96467.78;;;16.28;36.82
71105;BME280;58760;48.716;8.962;2023-03-16T12:39:58;96462.53;;;16.72;34.13
71105;BME280;58760;48.716;8.962;2023-03-16T12:45:30;96443.59;;;19.73;31.71
71105;BME280;58760;48.716;8.962;2023-03-16T12:50:31;96433.28;;;19.70;32.04
71105;BME280;58760;48.716;8.962;2023-03-16T12:52:57;96426.63;;;20.42;32.01
71105;BME280;58760;48.716;8.962;2023-03-16T12:55:28;96413.16;;;21.22;29.56
71105;BME280;58760;48.716;8.962;2023-03-16T12:58:05;96426.41;;;20.83;30.21
71105;BME280;58760;48.716;8.962;2023-03-16T13:00:37;96421.34;;;21.44;28.26
71105;BME280;58760;48.716;8.962;2023-03-16T13:03:12;96419.84;;;20.79;29.17
71105;BME280;58760;48.716;8.962;2023-03-16T13:05:42;96421.72;;;21.07;28.83
71105;BME280;58760;48.716;8.962;2023-03-16T13:08:16;96431.06;;;20.25;29.38
71105;BME280;58760;48.716;8.962;2023-03-16T13:10:58;96436.19;;;19.68;29.76
71105;BME280;58760;48.716;8.962;2023-03-16T13:13:24;96423.69;;;21.23;28.95
71105;BME280;58760;48.716;8.962;2023-03-16T13:16:01;96418.84;;;21.70;28.05
71105;BME280;58760;48.716;8.962;2023-03-16T13:18:38;96418.78;;;21.20;29.73
71105;BME280;58760;48.716;8.962;2023-03-16T13:21:20;96416.41;;;21.24;28.43
71105;BME280;58760;48.716;8.962;2023-03-16T13:29:19;96417.84;;;22.26;27.68
71105;BME280;58760;48.716;8.962;2023-03-16T13:31:46;96408.31;;;21.24;28.19
71105;BME280;58760;48.716;8.962;2023-03-16T13:34:14;96411.63;;;19.35;30.55
71105;BME280;58760;48.716;8.962;2023-03-16T13:36:44;96407.16;;;20.17;30.38
71105;BME280;58760;48.716;8.962;2023-03-16T13:39:21;96399.56;;;22.55;26.49
71105;BME280;58760;48.716;8.962;2023-03-16T13:42:19;96386.06;;;22.77;25.23
71105;BME280;58760;48.716;8.962;2023-03-16T13:44:45;96390.53;;;24.47;25.17
71105;BME280;58760;48.716;8.962;2023-03-16T13:47:12;96389.31;;;24.23;25.24
71105;BME280;58760;48.716;8.962;2023-03-16T13:49:45;96389.38;;;23.59;23.67
71105;BME280;58760;48.716;8.962;2023-03-16T13:54:44;96386.06;;;24.21;22.64
71105;BME280;58760;48.716;8.962;2023-03-16T13:57:11;96384.75;;;23.96;23.47
71105;BME280;58760;48.716;8.962;2023-03-16T13:59:37;96363.72;;;25.63;23.51
71105;BME280;58760;48.716;8.962;2023-03-16T14:02:16;96368.34;;;27.46;20.46
71105;BME280;58760;48.716;8.962;2023-03-16T14:04:42;96366.44;;;26.04;19.61